Kona Rose — WCW4451 — position and weather

sailwx.info

Track history (hours):
 
Tides and Currents Weather Stations Pressure Air Temp Water Temp Dewpoint Dewpoint Depression Visibility Wind Speed Wind Dir Waves Ship Positions

Kona Rose

Owner: KONA ROSE INC, SEATTLE, WA. More information available from US FCC via Universal Licensing System and Coast Guard Vessel Documentation Center.

Last reported at 2017-Oct-16 22:00 UTC. Time now 2017-Oct-16 22:29 UTC.
Position N 47°39' W 122°23'.

Length 17 m.

Type: Fishing. MMSI: 367091920.

Date/timePositionNaut miles runAvg speedWind from/ knotsBaromVisibWave heightAir tempDewpointWater temp
2017-Oct-16 22:00N 47°39' W 122°23'0 0.0
2017-Oct-16 21:30N 47°39' W 122°23'0 0.0
2017-Oct-16 21:00N 47°39' W 122°23'0 0.0
2017-Oct-16 20:30N 47°39' W 122°23'0 0.0
2017-Oct-16 20:00N 47°39' W 122°23'0 0.0
2017-Oct-16 19:30N 47°39' W 122°23'0 0.0
2017-Oct-16 19:00N 47°39' W 122°23'0 0.0
2017-Oct-16 18:30N 47°39' W 122°23'0 0.0
2017-Oct-16 18:00N 47°39' W 122°23'0 0.0
2017-Oct-16 17:30N 47°39' W 122°23'0 0.0
2017-Oct-16 17:00N 47°39' W 122°23'0 0.0
2017-Oct-16 16:30N 47°39' W 122°23'0 0.0
2017-Oct-16 16:00N 47°39' W 122°23'0 0.0
2017-Oct-16 15:30N 47°39' W 122°23'0 0.0
2017-Oct-16 14:57N 47°39' W 122°23'0 0.0
2017-Oct-16 14:30N 47°39' W 122°23'0 0.0
2017-Oct-16 13:30N 47°39' W 122°23'0 0.0
2017-Oct-16 13:00N 47°39' W 122°23'0 0.0
2017-Oct-16 12:30N 47°39' W 122°23'0 0.0
2017-Oct-16 12:00N 47°39' W 122°23'0 0.0
2017-Oct-16 11:30N 47°39' W 122°23'0 0.0
2017-Oct-16 11:00N 47°39' W 122°23'0 0.1
2017-Oct-16 10:30N 47°39' W 122°23'0 0.1
2017-Oct-16 10:00N 47°39' W 122°23'0 0.0
2017-Oct-16 09:30N 47°39' W 122°23'0 0.0
2017-Oct-16 09:00N 47°39' W 122°23'1 1.7
2017-Oct-16 08:29N 47°40' W 122°24'2 4.8
2017-Oct-16 08:00N 47°42' W 122°25'6 8.6
2017-Oct-16 07:19N 47°48' W 122°28'3 8.5
2017-Oct-16 07:00N 47°50' W 122°29'4 8.6
2017-Oct-16 06:30N 47°54' W 122°31'  
2017-Oct-13 23:29N 48°29' W 122°58'4 9.1
2017-Oct-13 23:00N 48°33' W 122°56'  
2017-Oct-09 18:56N 47°55' W 122°31'4 8.9
2017-Oct-09 18:30N 47°51' W 122°29'5 8.6
2017-Oct-09 17:58N 47°47' W 122°27'6 7.7
2017-Oct-09 17:13N 47°41' W 122°25'1 3.8
2017-Oct-09 16:55N 47°40' W 122°24'1 2.0
2017-Oct-09 16:31N 47°40' W 122°23'0 0.4
2017-Oct-09 16:00N 47°39' W 122°23'0 0.0
2017-Oct-09 15:30N 47°39' W 122°23'0 0.0
2017-Oct-09 15:00N 47°39' W 122°23'0 0.0
2017-Oct-09 14:30N 47°39' W 122°23'0 0.0
2017-Oct-09 14:00N 47°39' W 122°23'0 0.0
2017-Oct-09 13:30N 47°39' W 122°23'0 0.0
2017-Oct-09 13:00N 47°39' W 122°23'0 0.0
2017-Oct-09 12:30N 47°39' W 122°23'0 0.0
2017-Oct-09 12:00N 47°39' W 122°23'0 0.0
2017-Oct-09 11:30N 47°39' W 122°23'0 0.0
2017-Oct-09 11:00N 47°39' W 122°23'0 0.0
2017-Oct-09 10:30N 47°39' W 122°23'0 0.0
2017-Oct-09 10:00N 47°39' W 122°23'0 0.0
2017-Oct-09 09:30N 47°39' W 122°23'0 0.0
2017-Oct-09 09:00N 47°39' W 122°23'0 0.0
2017-Oct-09 08:30N 47°39' W 122°23'0 0.0
2017-Oct-09 08:00N 47°39' W 122°23'0 0.0
2017-Oct-09 07:30N 47°39' W 122°23'0 0.0
2017-Oct-09 07:00N 47°39' W 122°23'0 0.0
2017-Oct-09 06:30N 47°39' W 122°23'0 0.0
2017-Oct-09 06:00N 47°39' W 122°23'0 0.0
2017-Oct-09 05:30N 47°39' W 122°23'0 0.0
2017-Oct-09 03:36N 47°39' W 122°23'0 0.0
2017-Oct-09 03:27N 47°39' W 122°23'0 0.0
2017-Oct-09 03:00N 47°39' W 122°23'0 0.0
2017-Oct-09 02:30N 47°39' W 122°23'0 0.0
2017-Oct-08 22:48N 47°39' W 122°23'0 0.0
2017-Oct-08 22:30N 47°39' W 122°23'0 0.0
2017-Oct-08 21:57N 47°39' W 122°23'0 0.0
2017-Oct-08 18:54N 47°39' W 122°23'0 0.0
2017-Oct-08 18:30N 47°39' W 122°23'0 0.0
2017-Oct-08 17:21N 47°39' W 122°23'0 0.0
2017-Oct-08 17:00N 47°39' W 122°23'0 0.0
2017-Oct-08 16:27N 47°39' W 122°23'0 0.0
2017-Oct-08 15:57N 47°39' W 122°23'0 0.0
2017-Oct-08 15:30N 47°39' W 122°23'0 0.0
2017-Oct-08 14:57N 47°39' W 122°23'0 0.0
2017-Oct-08 14:30N 47°39' W 122°23'0 0.0
2017-Oct-08 14:00N 47°39' W 122°23'0 0.0
2017-Oct-08 13:30N 47°39' W 122°23'0 0.0
2017-Oct-08 12:57N 47°39' W 122°23'0 0.0
2017-Oct-08 12:30N 47°39' W 122°23'0 0.0
2017-Oct-08 12:00N 47°39' W 122°23'0 0.0
2017-Oct-08 11:30N 47°39' W 122°23'0 0.1
2017-Oct-08 11:00N 47°39' W 122°23'0 0.1
2017-Oct-08 10:30N 47°39' W 122°23'0 0.0
2017-Oct-08 10:00N 47°39' W 122°23'0 0.0
2017-Oct-08 09:30N 47°39' W 122°23'0 0.0
2017-Oct-08 09:00N 47°39' W 122°23'0 0.0
2017-Oct-08 08:30N 47°39' W 122°23'0 0.0
2017-Oct-08 08:00N 47°39' W 122°23'0 0.0
2017-Oct-08 07:30N 47°39' W 122°23'0 0.0
2017-Oct-08 07:00N 47°39' W 122°23'0 0.0
2017-Oct-08 06:30N 47°39' W 122°23'0 0.0
2017-Oct-08 06:00N 47°39' W 122°23'0 0.0
2017-Oct-08 05:30N 47°39' W 122°23'0 0.0
2017-Oct-08 04:48N 47°39' W 122°23'0 0.0
2017-Oct-08 04:21N 47°39' W 122°23'0 0.0
2017-Oct-08 04:00N 47°39' W 122°23'0 0.0
2017-Oct-08 03:30N 47°39' W 122°23'0 0.0
2017-Oct-08 03:00N 47°39' W 122°23'0 0.0
2017-Oct-08 02:21N 47°39' W 122°23'0 0.0
2017-Oct-08 01:57N 47°39' W 122°23'0 0.0
2017-Oct-08 01:24N 47°39' W 122°23'0 0.0
2017-Oct-08 01:00N 47°39' W 122°23'0 0.0
2017-Oct-08 00:27N 47°39' W 122°23'0 0.0
2017-Oct-07 23:57N 47°39' W 122°23'0 0.0
2017-Oct-07 23:30N 47°39' W 122°23'0 0.0
2017-Oct-07 23:00N 47°39' W 122°23'0 0.0
2017-Oct-07 22:30N 47°39' W 122°23'0 0.0
2017-Oct-07 22:00N 47°39' W 122°23'0 0.0
2017-Oct-07 21:30N 47°39' W 122°23'0 0.0
2017-Oct-07 21:00N 47°39' W 122°23'0 0.0
2017-Oct-07 20:30N 47°39' W 122°23'0 0.0
2017-Oct-07 20:00N 47°39' W 122°23'0 0.0
2017-Oct-07 19:30N 47°39' W 122°23'0 0.0
2017-Oct-07 19:00N 47°39' W 122°23'0 0.0
2017-Oct-07 18:30N 47°39' W 122°23'0 0.0
2017-Oct-07 18:00N 47°39' W 122°23'0 0.0
2017-Oct-07 17:30N 47°39' W 122°23'0 0.0
2017-Oct-07 16:57N 47°39' W 122°23'0 0.0
2017-Oct-07 16:27N 47°39' W 122°23'0 0.0
2017-Oct-07 16:00N 47°39' W 122°23'0 0.0
2017-Oct-07 15:30N 47°39' W 122°23'0 0.0
2017-Oct-07 15:00N 47°39' W 122°23'0 0.0
2017-Oct-07 14:30N 47°39' W 122°23'0 0.0
2017-Oct-07 14:00N 47°39' W 122°23'0 0.0
2017-Oct-07 13:30N 47°39' W 122°23'0 0.0
2017-Oct-07 13:00N 47°39' W 122°23'0 0.0
2017-Oct-07 12:30N 47°39' W 122°23'0 0.0
2017-Oct-07 12:00N 47°39' W 122°23'0 0.0
2017-Oct-07 11:30N 47°39' W 122°23'0 0.0
2017-Oct-07 10:57N 47°39' W 122°23'0 0.0
2017-Oct-07 10:30N 47°39' W 122°23'0 0.0
2017-Oct-07 10:00N 47°39' W 122°23'0 0.0
2017-Oct-07 09:30N 47°39' W 122°23'0 0.0
2017-Oct-07 09:00N 47°39' W 122°23'0 0.0
2017-Oct-07 08:30N 47°39' W 122°23'0 0.0
2017-Oct-07 08:00N 47°39' W 122°23'0 0.0
2017-Oct-07 07:30N 47°39' W 122°23'0 0.0
2017-Oct-07 07:00N 47°39' W 122°23'0 0.0
2017-Oct-07 06:30N 47°39' W 122°23'0 0.0
2017-Oct-07 06:00N 47°39' W 122°23'0 0.0
2017-Oct-07 05:30N 47°39' W 122°23'0 0.0
2017-Oct-07 05:00N 47°39' W 122°23'0 0.0
2017-Oct-07 04:27N 47°39' W 122°23'0 0.0
2017-Oct-07 04:00N 47°39' W 122°23'0 0.0
2017-Oct-07 03:27N 47°39' W 122°23'0 0.0
2017-Oct-07 02:54N 47°39' W 122°23'0 0.0
2017-Oct-07 02:24N 47°39' W 122°23'0 0.0
2017-Oct-07 02:00N 47°39' W 122°23'0 0.0
2017-Oct-07 01:30N 47°39' W 122°23'0 0.0
2017-Oct-07 01:00N 47°39' W 122°23'0 0.0
2017-Oct-07 00:30N 47°39' W 122°23'0 0.0
2017-Oct-07 00:00N 47°39' W 122°23'0 0.0
2017-Oct-06 23:30N 47°39' W 122°23'0 0.0
2017-Oct-06 23:00N 47°39' W 122°23'0 0.0
2017-Oct-06 22:30N 47°39' W 122°23'0 0.0
2017-Oct-06 22:00N 47°39' W 122°23'  
Track history (hours):
 
Tides and Currents Weather Stations Pressure Air Temp Water Temp Dewpoint Dewpoint Depression Visibility Wind Speed Wind Dir Waves Ship Positions

Kona Rose

Owner: KONA ROSE INC, SEATTLE, WA. More information available from US FCC via Universal Licensing System and Coast Guard Vessel Documentation Center.

Last reported at 2017-Oct-16 22:00 UTC. Time now 2017-Oct-16 22:29 UTC.
Position N 47°39' W 122°23'.

Length 17 m.

Type: Fishing. MMSI: 367091920.

Date/timePositionNaut miles runAvg speedWind from/ knotsBaromVisibWave heightAir tempDewpointWater temp
2017-Oct-16 22:00N 47°39' W 122°23'0 0.0
2017-Oct-16 21:30N 47°39' W 122°23'0 0.0
2017-Oct-16 21:00N 47°39' W 122°23'0 0.0
2017-Oct-16 20:30N 47°39' W 122°23'0 0.0
2017-Oct-16 20:00N 47°39' W 122°23'0 0.0
2017-Oct-16 19:30N 47°39' W 122°23'0 0.0
2017-Oct-16 19:00N 47°39' W 122°23'0 0.0
2017-Oct-16 18:30N 47°39' W 122°23'0 0.0
2017-Oct-16 18:00N 47°39' W 122°23'0 0.0
2017-Oct-16 17:30N 47°39' W 122°23'0 0.0
2017-Oct-16 17:00N 47°39' W 122°23'0 0.0
2017-Oct-16 16:30N 47°39' W 122°23'0 0.0
2017-Oct-16 16:00N 47°39' W 122°23'0 0.0
2017-Oct-16 15:30N 47°39' W 122°23'0 0.0
2017-Oct-16 14:57N 47°39' W 122°23'0 0.0
2017-Oct-16 14:30N 47°39' W 122°23'0 0.0
2017-Oct-16 13:30N 47°39' W 122°23'0 0.0
2017-Oct-16 13:00N 47°39' W 122°23'0 0.0
2017-Oct-16 12:30N 47°39' W 122°23'0 0.0
2017-Oct-16 12:00N 47°39' W 122°23'0 0.0
2017-Oct-16 11:30N 47°39' W 122°23'0 0.0
2017-Oct-16 11:00N 47°39' W 122°23'0 0.1
2017-Oct-16 10:30N 47°39' W 122°23'0 0.1
2017-Oct-16 10:00N 47°39' W 122°23'0 0.0
2017-Oct-16 09:30N 47°39' W 122°23'0 0.0
2017-Oct-16 09:00N 47°39' W 122°23'1 1.7
2017-Oct-16 08:29N 47°40' W 122°24'2 4.8
2017-Oct-16 08:00N 47°42' W 122°25'6 8.6
2017-Oct-16 07:19N 47°48' W 122°28'3 8.5
2017-Oct-16 07:00N 47°50' W 122°29'4 8.6
2017-Oct-16 06:30N 47°54' W 122°31'  
2017-Oct-13 23:29N 48°29' W 122°58'4 9.1
2017-Oct-13 23:00N 48°33' W 122°56'  
2017-Oct-09 18:56N 47°55' W 122°31'4 8.9
2017-Oct-09 18:30N 47°51' W 122°29'5 8.6
2017-Oct-09 17:58N 47°47' W 122°27'6 7.7
2017-Oct-09 17:13N 47°41' W 122°25'1 3.8
2017-Oct-09 16:55N 47°40' W 122°24'1 2.0
2017-Oct-09 16:31N 47°40' W 122°23'0 0.4
2017-Oct-09 16:00N 47°39' W 122°23'0 0.0
2017-Oct-09 15:30N 47°39' W 122°23'0 0.0
2017-Oct-09 15:00N 47°39' W 122°23'0 0.0
2017-Oct-09 14:30N 47°39' W 122°23'0 0.0
2017-Oct-09 14:00N 47°39' W 122°23'0 0.0
2017-Oct-09 13:30N 47°39' W 122°23'0 0.0
2017-Oct-09 13:00N 47°39' W 122°23'0 0.0
2017-Oct-09 12:30N 47°39' W 122°23'0 0.0
2017-Oct-09 12:00N 47°39' W 122°23'0 0.0
2017-Oct-09 11:30N 47°39' W 122°23'0 0.0
2017-Oct-09 11:00N 47°39' W 122°23'0 0.0
2017-Oct-09 10:30N 47°39' W 122°23'0 0.0
2017-Oct-09 10:00N 47°39' W 122°23'0 0.0
2017-Oct-09 09:30N 47°39' W 122°23'0 0.0
2017-Oct-09 09:00N 47°39' W 122°23'0 0.0
2017-Oct-09 08:30N 47°39' W 122°23'0 0.0
2017-Oct-09 08:00N 47°39' W 122°23'0 0.0
2017-Oct-09 07:30N 47°39' W 122°23'0 0.0
2017-Oct-09 07:00N 47°39' W 122°23'0 0.0
2017-Oct-09 06:30N 47°39' W 122°23'0 0.0
2017-Oct-09 06:00N 47°39' W 122°23'0 0.0
2017-Oct-09 05:30N 47°39' W 122°23'0 0.0
2017-Oct-09 03:36N 47°39' W 122°23'0 0.0
2017-Oct-09 03:27N 47°39' W 122°23'0 0.0
2017-Oct-09 03:00N 47°39' W 122°23'0 0.0
2017-Oct-09 02:30N 47°39' W 122°23'0 0.0
2017-Oct-08 22:48N 47°39' W 122°23'0 0.0
2017-Oct-08 22:30N 47°39' W 122°23'0 0.0
2017-Oct-08 21:57N 47°39' W 122°23'0 0.0
2017-Oct-08 18:54N 47°39' W 122°23'0 0.0
2017-Oct-08 18:30N 47°39' W 122°23'0 0.0
2017-Oct-08 17:21N 47°39' W 122°23'0 0.0
2017-Oct-08 17:00N 47°39' W 122°23'0 0.0
2017-Oct-08 16:27N 47°39' W 122°23'0 0.0
2017-Oct-08 15:57N 47°39' W 122°23'0 0.0
2017-Oct-08 15:30N 47°39' W 122°23'0 0.0
2017-Oct-08 14:57N 47°39' W 122°23'0 0.0
2017-Oct-08 14:30N 47°39' W 122°23'0 0.0
2017-Oct-08 14:00N 47°39' W 122°23'0 0.0
2017-Oct-08 13:30N 47°39' W 122°23'0 0.0
2017-Oct-08 12:57N 47°39' W 122°23'0 0.0
2017-Oct-08 12:30N 47°39' W 122°23'0 0.0
2017-Oct-08 12:00N 47°39' W 122°23'0 0.0
2017-Oct-08 11:30N 47°39' W 122°23'0 0.1
2017-Oct-08 11:00N 47°39' W 122°23'0 0.1
2017-Oct-08 10:30N 47°39' W 122°23'0 0.0
2017-Oct-08 10:00N 47°39' W 122°23'0 0.0
2017-Oct-08 09:30N 47°39' W 122°23'0 0.0
2017-Oct-08 09:00N 47°39' W 122°23'0 0.0
2017-Oct-08 08:30N 47°39' W 122°23'0 0.0
2017-Oct-08 08:00N 47°39' W 122°23'0 0.0
2017-Oct-08 07:30N 47°39' W 122°23'0 0.0
2017-Oct-08 07:00N 47°39' W 122°23'0 0.0
2017-Oct-08 06:30N 47°39' W 122°23'0 0.0
2017-Oct-08 06:00N 47°39' W 122°23'0 0.0
2017-Oct-08 05:30N 47°39' W 122°23'0 0.0
2017-Oct-08 04:48N 47°39' W 122°23'0 0.0
2017-Oct-08 04:21N 47°39' W 122°23'0 0.0
2017-Oct-08 04:00N 47°39' W 122°23'0 0.0
2017-Oct-08 03:30N 47°39' W 122°23'0 0.0
2017-Oct-08 03:00N 47°39' W 122°23'0 0.0
2017-Oct-08 02:21N 47°39' W 122°23'0 0.0
2017-Oct-08 01:57N 47°39' W 122°23'0 0.0
2017-Oct-08 01:24N 47°39' W 122°23'0 0.0
2017-Oct-08 01:00N 47°39' W 122°23'0 0.0
2017-Oct-08 00:27N 47°39' W 122°23'0 0.0
2017-Oct-07 23:57N 47°39' W 122°23'0 0.0
2017-Oct-07 23:30N 47°39' W 122°23'0 0.0
2017-Oct-07 23:00N 47°39' W 122°23'0 0.0
2017-Oct-07 22:30N 47°39' W 122°23'0 0.0
2017-Oct-07 22:00N 47°39' W 122°23'0 0.0
2017-Oct-07 21:30N 47°39' W 122°23'0 0.0
2017-Oct-07 21:00N 47°39' W 122°23'0 0.0
2017-Oct-07 20:30N 47°39' W 122°23'0 0.0
2017-Oct-07 20:00N 47°39' W 122°23'0 0.0
2017-Oct-07 19:30N 47°39' W 122°23'0 0.0
2017-Oct-07 19:00N 47°39' W 122°23'0 0.0
2017-Oct-07 18:30N 47°39' W 122°23'0 0.0
2017-Oct-07 18:00N 47°39' W 122°23'0 0.0
2017-Oct-07 17:30N 47°39' W 122°23'0 0.0
2017-Oct-07 16:57N 47°39' W 122°23'0 0.0
2017-Oct-07 16:27N 47°39' W 122°23'0 0.0
2017-Oct-07 16:00N 47°39' W 122°23'0 0.0
2017-Oct-07 15:30N 47°39' W 122°23'0 0.0
2017-Oct-07 15:00N 47°39' W 122°23'0 0.0
2017-Oct-07 14:30N 47°39' W 122°23'0 0.0
2017-Oct-07 14:00N 47°39' W 122°23'0 0.0
2017-Oct-07 13:30N 47°39' W 122°23'0 0.0
2017-Oct-07 13:00N 47°39' W 122°23'0 0.0
2017-Oct-07 12:30N 47°39' W 122°23'0 0.0
2017-Oct-07 12:00N 47°39' W 122°23'0 0.0
2017-Oct-07 11:30N 47°39' W 122°23'0 0.0
2017-Oct-07 10:57N 47°39' W 122°23'0 0.0
2017-Oct-07 10:30N 47°39' W 122°23'0 0.0
2017-Oct-07 10:00N 47°39' W 122°23'0 0.0
2017-Oct-07 09:30N 47°39' W 122°23'0 0.0
2017-Oct-07 09:00N 47°39' W 122°23'0 0.0
2017-Oct-07 08:30N 47°39' W 122°23'0 0.0
2017-Oct-07 08:00N 47°39' W 122°23'0 0.0
2017-Oct-07 07:30N 47°39' W 122°23'0 0.0
2017-Oct-07 07:00N 47°39' W 122°23'0 0.0
2017-Oct-07 06:30N 47°39' W 122°23'0 0.0
2017-Oct-07 06:00N 47°39' W 122°23'0 0.0
2017-Oct-07 05:30N 47°39' W 122°23'0 0.0
2017-Oct-07 05:00N 47°39' W 122°23'0 0.0
2017-Oct-07 04:27N 47°39' W 122°23'0 0.0
2017-Oct-07 04:00N 47°39' W 122°23'0 0.0
2017-Oct-07 03:27N 47°39' W 122°23'0 0.0
2017-Oct-07 02:54N 47°39' W 122°23'0 0.0
2017-Oct-07 02:24N 47°39' W 122°23'0 0.0
2017-Oct-07 02:00N 47°39' W 122°23'0 0.0
2017-Oct-07 01:30N 47°39' W 122°23'0 0.0
2017-Oct-07 01:00N 47°39' W 122°23'0 0.0
2017-Oct-07 00:30N 47°39' W 122°23'0 0.0
2017-Oct-07 00:00N 47°39' W 122°23'0 0.0
2017-Oct-06 23:30N 47°39' W 122°23'0 0.0
2017-Oct-06 23:00N 47°39' W 122°23'0 0.0
2017-Oct-06 22:30N 47°39' W 122°23'0 0.0
2017-Oct-06 22:00N 47°39' W 122°23'  

Dump ship's entire track history